createdAt,value
2018-05-03T00:01:24.020Z,83.57
2018-05-03T00:03:29.712Z,65.00
2018-05-03T00:05:33.957Z,64.40
2018-05-03T00:07:38.428Z,60.63
2018-05-03T00:09:43.595Z,56.73
2018-05-03T00:11:47.937Z,50.37
2018-05-03T00:13:52.476Z,48.20
2018-05-03T00:15:56.751Z,46.53
2018-05-03T00:18:01.068Z,42.70
2018-05-03T00:20:05.622Z,39.17
2018-05-03T00:22:11.320Z,38.97
2018-05-03T00:24:16.198Z,35.83
2018-05-03T00:26:21.985Z,34.73
2018-05-03T00:28:26.428Z,33.47
2018-05-03T00:30:31.004Z,31.80
2018-05-03T00:32:35.559Z,27.90
2018-05-03T00:34:40.096Z,30.03
2018-05-03T00:36:46.930Z,23.83
2018-05-03T00:38:50.980Z,24.27
2018-05-03T00:40:55.481Z,24.33
2018-05-03T00:42:59.630Z,22.43
2018-05-03T00:45:04.294Z,21.60
2018-05-03T00:47:09.258Z,21.47
2018-05-03T00:49:13.979Z,18.20
2018-05-03T00:51:19.689Z,19.37
2018-05-03T00:53:25.684Z,18.73
2018-05-03T00:55:29.895Z,15.40
2018-05-03T00:57:34.419Z,17.17
2018-05-03T00:59:38.562Z,16.30
2018-05-03T01:01:44.484Z,14.40
2018-05-03T01:03:48.614Z,15.00
2018-05-03T01:05:53.110Z,15.20
2018-05-03T01:07:57.246Z,14.93
2018-05-03T01:10:01.446Z,14.70
2018-05-03T01:12:06.341Z,14.13
2018-05-03T01:14:12.430Z,13.53
2018-05-03T01:16:18.977Z,14.63
2018-05-03T01:18:24.216Z,14.10
2018-05-03T01:20:28.862Z,13.33
2018-05-03T01:22:33.037Z,13.67
2018-05-03T01:24:37.412Z,13.33
2018-05-03T01:26:43.332Z,12.23
2018-05-03T01:28:47.536Z,12.57
2018-05-03T01:30:51.827Z,13.30
2018-05-03T01:32:55.872Z,12.07
2018-05-03T01:35:09.370Z,13.70
2018-05-03T01:37:14.100Z,11.73
2018-05-03T01:39:22.889Z,12.13
2018-05-03T01:41:27.281Z,12.07
2018-05-03T01:43:31.872Z,11.50
2018-05-03T01:45:36.067Z,11.07
2018-05-03T01:47:41.373Z,11.70
2018-05-03T01:49:45.591Z,11.20
2018-05-03T01:51:50.403Z,11.60
2018-05-03T01:53:54.879Z,11.57
2018-05-03T01:55:59.067Z,11.77
2018-05-03T01:58:03.490Z,11.70
2018-05-03T02:00:07.940Z,10.40
2018-05-03T02:02:14.127Z,10.40
2018-05-03T02:04:20.047Z,10.00
2018-05-03T02:06:25.783Z,9.90
2018-05-03T02:08:30.221Z,10.07
2018-05-03T02:10:34.743Z,10.50
2018-05-03T02:12:39.583Z,9.80
2018-05-03T02:14:44.447Z,9.17
2018-05-03T02:16:48.423Z,10.40
2018-05-03T02:18:52.812Z,9.03
2018-05-03T02:20:56.921Z,9.27
2018-05-03T02:23:01.025Z,9.80
2018-05-03T02:25:05.673Z,9.90
2018-05-03T02:27:11.027Z,10.00
2018-05-03T02:29:16.084Z,9.53
2018-05-03T02:31:21.953Z,9.87
2018-05-03T02:33:26.452Z,8.50
2018-05-03T02:35:30.922Z,9.50
2018-05-03T02:37:35.144Z,9.37
2018-05-03T02:39:40.252Z,9.93
2018-05-03T02:41:44.520Z,9.10
2018-05-03T02:43:48.584Z,9.70
2018-05-03T02:45:53.043Z,9.23
2018-05-03T02:47:57.340Z,9.70
2018-05-03T02:50:01.775Z,8.70
2018-05-03T02:52:06.924Z,10.50
2018-05-03T02:54:11.518Z,8.57
2018-05-03T02:56:16.539Z,9.10
2018-05-03T02:58:32.008Z,9.13
2018-05-03T03:00:51.015Z,9.33
2018-05-03T03:04:08.082Z,9.70
2018-05-03T03:07:31.601Z,10.73
2018-05-03T03:09:47.523Z,9.20
2018-05-03T03:14:01.068Z,9.73
2018-05-03T03:19:28.272Z,9.20
2018-05-03T03:22:46.507Z,8.77
2018-05-03T03:24:59.281Z,9.50
2018-05-03T03:30:15.436Z,9.83
2018-05-03T03:34:05.574Z,9.80
2018-05-03T03:36:50.302Z,9.57
2018-05-03T03:42:10.276Z,9.50
2018-05-03T03:44:52.605Z,9.30
2018-05-03T03:46:56.756Z,9.83
2018-05-03T03:49:00.971Z,10.20
2018-05-03T03:51:05.953Z,9.60
2018-05-03T03:53:10.983Z,8.50
2018-05-03T03:55:16.441Z,9.17
2018-05-03T03:57:23.680Z,8.80
2018-05-03T03:59:27.860Z,8.57
2018-05-03T04:01:31.971Z,8.20
2018-05-03T04:03:36.413Z,8.90
2018-05-03T04:05:41.523Z,9.00
2018-05-03T04:07:45.663Z,8.70
2018-05-03T04:09:49.848Z,8.97
2018-05-03T04:11:53.948Z,10.27
2018-05-03T04:13:58.236Z,9.60
2018-05-03T04:16:02.284Z,9.27
2018-05-03T04:18:18.436Z,9.00
2018-05-03T04:20:32.357Z,8.40
2018-05-03T04:22:48.808Z,8.97
2018-05-03T04:27:02.384Z,10.03
2018-05-03T04:29:07.171Z,8.90
2018-05-03T04:31:11.977Z,9.40
2018-05-03T04:33:16.391Z,8.70
2018-05-03T04:35:22.935Z,287.47
2018-05-03T04:37:27.280Z,373.53
2018-05-03T04:39:31.704Z,420.63
2018-05-03T04:41:36.152Z,188.60
2018-05-03T04:43:41.063Z,165.20
2018-05-03T04:45:52.983Z,115.30
2018-05-03T04:47:57.110Z,106.70
2018-05-03T04:50:01.219Z,100.97
2018-05-03T04:52:05.749Z,85.80
2018-05-03T04:54:11.009Z,72.60
2018-05-03T04:56:17.484Z,210.27
2018-05-03T04:58:22.034Z,351.00
2018-05-03T05:00:26.989Z,304.73
2018-05-03T05:02:31.232Z,267.53
2018-05-03T05:04:35.177Z,247.60
2018-05-03T05:06:40.120Z,244.53
2018-05-03T05:08:44.457Z,228.33
2018-05-03T05:10:48.288Z,202.50
2018-05-03T05:12:52.387Z,170.93
2018-05-03T05:14:56.211Z,153.20
2018-05-03T05:17:00.399Z,139.10
2018-05-03T05:19:05.090Z,132.37
2018-05-03T05:21:09.604Z,87.63
2018-05-03T05:23:14.573Z,122.23
2018-05-03T05:25:20.315Z,113.60
2018-05-03T05:27:24.871Z,76.67
2018-05-03T05:29:29.065Z,84.97
2018-05-03T05:31:33.235Z,66.10
2018-05-03T05:33:37.211Z,173.77
2018-05-03T05:35:42.393Z,204.47
2018-05-03T05:37:46.603Z,282.00
2018-05-03T05:39:50.752Z,284.07
2018-05-03T05:41:54.728Z,191.37
2018-05-03T05:44:03.854Z,135.17
2018-05-03T05:46:09.072Z,400.90
2018-05-03T05:48:14.442Z,451.57
2018-05-03T05:50:19.479Z,364.83
2018-05-03T05:52:24.595Z,262.67
2018-05-03T05:54:28.859Z,253.67
2018-05-03T05:56:33.066Z,185.07
2018-05-03T05:58:36.872Z,161.00
2018-05-03T06:00:41.699Z,148.47
2018-05-03T06:02:46.203Z,138.27
2018-05-03T06:04:50.311Z,171.30
2018-05-03T06:06:54.691Z,392.30
2018-05-03T06:08:59.336Z,392.70
2018-05-03T06:11:03.285Z,351.17
2018-05-03T06:13:07.995Z,268.77
2018-05-03T06:15:13.017Z,237.17
2018-05-03T06:17:18.906Z,230.00
2018-05-03T06:19:24.722Z,205.37
2018-05-03T06:21:29.028Z,177.67
2018-05-03T06:23:33.177Z,166.20
2018-05-03T06:25:37.471Z,236.13
2018-05-03T06:27:43.944Z,708.83
2018-05-03T06:29:47.944Z,549.80
2018-05-03T06:31:51.796Z,359.10
2018-05-03T06:33:55.952Z,338.53
2018-05-03T06:36:00.260Z,260.20
2018-05-03T06:38:04.620Z,203.27
2018-05-03T06:40:09.684Z,179.97
2018-05-03T06:42:14.114Z,381.07
2018-05-03T06:44:19.079Z,425.67
2018-05-03T06:46:23.512Z,378.00
2018-05-03T06:48:27.347Z,379.20
2018-05-03T06:50:32.255Z,317.33
2018-05-03T06:52:36.353Z,228.33
2018-05-03T06:54:40.184Z,220.87
2018-05-03T06:56:44.140Z,172.67
2018-05-03T06:58:48.267Z,148.00
2018-05-03T07:00:52.179Z,132.83
2018-05-03T07:02:55.993Z,101.07
2018-05-03T07:05:00.283Z,126.77
2018-05-03T07:07:04.651Z,121.90
2018-05-03T07:09:10.416Z,106.73
2018-05-03T07:11:15.550Z,109.23
2018-05-03T07:13:20.636Z,85.77
2018-05-03T07:15:25.025Z,173.23
2018-05-03T07:17:29.267Z,347.10
2018-05-03T07:19:33.667Z,335.23
2018-05-03T07:21:37.999Z,339.73
2018-05-03T07:23:43.830Z,261.23
2018-05-03T07:25:47.748Z,227.07
2018-05-03T07:27:51.712Z,170.57
2018-05-03T07:29:55.852Z,198.77
2018-05-03T07:32:00.190Z,126.17
2018-05-03T07:34:04.755Z,128.20
2018-05-03T07:36:10.237Z,103.50
2018-05-03T07:38:14.898Z,467.13
2018-05-03T07:40:20.883Z,509.27
2018-05-03T07:42:25.536Z,443.80
2018-05-03T07:44:29.396Z,296.00
2018-05-03T07:46:33.260Z,285.83
2018-05-03T07:48:37.992Z,263.33
2018-05-03T07:50:43.386Z,226.03
2018-05-03T07:52:47.217Z,193.23
2018-05-03T07:54:51.469Z,160.00
2018-05-03T07:56:55.324Z,317.37
2018-05-03T07:58:59.166Z,479.07
2018-05-03T08:01:03.267Z,470.23
2018-05-03T08:03:08.371Z,377.37
2018-05-03T08:05:13.147Z,354.70
2018-05-03T08:07:21.110Z,272.87
2018-05-03T08:09:25.159Z,229.93
2018-05-03T08:11:29.136Z,208.57
2018-05-03T08:13:33.580Z,162.23
2018-05-03T08:15:37.620Z,151.80
2018-05-03T08:17:42.688Z,120.33
2018-05-03T08:19:47.338Z,128.17
2018-05-03T08:21:51.531Z,97.07
2018-05-03T08:23:55.687Z,249.63
2018-05-03T08:25:59.828Z,389.77
2018-05-03T08:28:04.040Z,488.17
2018-05-03T08:30:08.505Z,404.33
2018-05-03T08:32:14.123Z,247.20
2018-05-03T08:34:19.977Z,231.30
2018-05-03T08:36:24.352Z,156.60
2018-05-03T08:38:28.744Z,184.23
2018-05-03T08:40:32.585Z,148.30
2018-05-03T08:42:36.395Z,123.97
2018-05-03T08:44:41.699Z,304.27
2018-05-03T08:46:45.891Z,340.77
2018-05-03T08:48:49.998Z,390.10
2018-05-03T08:50:54.097Z,297.13
2018-05-03T08:52:57.997Z,189.67
2018-05-03T08:55:01.876Z,198.47
2018-05-03T08:57:07.727Z,121.37
2018-05-03T08:59:12.161Z,152.17
2018-05-03T09:01:20.753Z,92.57
2018-05-03T09:03:25.469Z,105.03
2018-05-03T09:05:29.537Z,107.83
2018-05-03T09:07:33.477Z,94.27
2018-05-03T09:09:38.246Z,73.73
2018-05-03T09:11:43.892Z,79.20
2018-05-03T09:13:47.764Z,58.10
2018-05-03T09:15:52.444Z,56.13
2018-05-03T09:17:56.268Z,56.37
2018-05-03T09:20:00.223Z,53.60
2018-05-03T09:22:04.559Z,64.63
2018-05-03T09:24:09.250Z,39.83
2018-05-03T09:26:14.834Z,47.70
2018-05-03T09:28:20.570Z,44.20
2018-05-03T09:30:24.958Z,38.37
2018-05-03T09:32:28.880Z,42.33
2018-05-03T09:34:33.298Z,34.73
2018-05-03T09:36:37.204Z,32.73
2018-05-03T09:38:42.566Z,504.43
2018-05-03T09:40:46.768Z,414.30
2018-05-03T09:42:50.672Z,263.77
2018-05-03T09:44:55.068Z,192.80
2018-05-03T09:46:59.205Z,109.63
2018-05-03T09:49:03.062Z,217.53
2018-05-03T09:51:07.923Z,433.70
2018-05-03T09:53:12.904Z,331.13
2018-05-03T09:55:17.451Z,462.07
2018-05-03T09:57:22.477Z,261.47
2018-05-03T09:59:27.248Z,217.67
2018-05-03T10:01:31.478Z,152.67
2018-05-03T10:03:35.469Z,144.53
2018-05-03T10:05:39.628Z,175.30
2018-05-03T10:07:43.808Z,134.53
2018-05-03T10:09:48.094Z,130.80
2018-05-03T10:11:52.207Z,106.73
2018-05-03T10:13:56.290Z,121.60
2018-05-03T10:16:00.222Z,103.67
2018-05-03T10:18:05.134Z,94.47
2018-05-03T10:20:10.941Z,90.93
2018-05-03T10:22:16.219Z,92.13
2018-05-03T10:24:22.407Z,79.00
2018-05-03T10:26:26.389Z,81.03
2018-05-03T10:28:30.515Z,76.43
2018-05-03T10:30:34.804Z,80.47
2018-05-03T10:32:38.743Z,67.33
2018-05-03T10:34:42.888Z,58.47
2018-05-03T10:36:47.149Z,375.60
2018-05-03T10:38:51.224Z,432.27
2018-05-03T10:40:55.207Z,478.10
2018-05-03T10:42:59.503Z,287.90
2018-05-03T10:45:03.704Z,287.70
2018-05-03T10:47:09.366Z,166.93
2018-05-03T10:49:14.978Z,207.57
2018-05-03T10:51:20.588Z,151.10
2018-05-03T10:53:26.737Z,148.07
2018-05-03T10:55:31.008Z,148.07
2018-05-03T10:57:35.021Z,117.47
2018-05-03T10:59:39.530Z,87.57
2018-05-03T11:01:44.668Z,99.00
2018-05-03T11:03:48.814Z,88.40
2018-05-03T11:05:53.360Z,76.10
2018-05-03T11:07:59.961Z,81.40
2018-05-03T11:10:04.286Z,82.17
2018-05-03T11:12:11.147Z,65.00
2018-05-03T11:15:42.972Z,68.03
2018-05-03T11:17:47.334Z,50.33
2018-05-03T11:19:57.730Z,54.77
2018-05-03T11:22:02.124Z,57.90
2018-05-03T11:24:07.001Z,43.70
2018-05-03T11:26:14.462Z,40.27
2018-05-03T11:28:21.604Z,39.87
2018-05-03T11:30:25.904Z,45.63
2018-05-03T11:32:30.414Z,40.43
2018-05-03T11:34:34.519Z,35.30
2018-05-03T11:36:41.003Z,35.87
2018-05-03T11:38:54.341Z,33.07
2018-05-03T11:41:06.522Z,32.93
2018-05-03T11:43:22.930Z,28.80
2018-05-03T11:45:34.993Z,24.30
2018-05-03T11:47:39.701Z,25.83
2018-05-03T11:49:44.277Z,30.20
2018-05-03T11:51:48.451Z,22.47
2018-05-03T11:53:52.340Z,22.27
2018-05-03T11:55:56.252Z,21.17
2018-05-03T11:58:00.764Z,21.63
2018-05-03T12:00:04.665Z,21.40
2018-05-03T12:02:09.269Z,20.17
2018-05-03T12:04:14.387Z,20.33
2018-05-03T12:06:21.079Z,41.53
2018-05-03T12:08:25.347Z,339.90
2018-05-03T12:10:30.147Z,376.30
2018-05-03T12:12:34.297Z,392.17
2018-05-03T12:14:38.173Z,313.40
2018-05-03T12:16:43.780Z,238.43
2018-05-03T12:18:47.702Z,259.90
2018-05-03T12:20:51.573Z,175.37
2018-05-03T12:22:55.803Z,164.97
2018-05-03T12:24:59.809Z,197.87
2018-05-03T12:27:04.653Z,129.40
2018-05-03T12:30:12.025Z,127.50
2018-05-03T12:32:17.485Z,134.07
2018-05-03T12:34:22.753Z,86.30
2018-05-03T12:36:27.593Z,405.57
2018-05-03T12:38:31.403Z,431.53
2018-05-03T12:40:35.857Z,442.03
2018-05-03T12:42:40.585Z,306.80
2018-05-03T12:44:45.172Z,260.67
2018-05-03T12:46:49.490Z,250.40
2018-05-03T12:48:53.363Z,241.83
2018-05-03T12:50:57.352Z,219.50
2018-05-03T12:53:01.839Z,467.07
2018-05-03T12:55:06.183Z,565.50
2018-05-03T12:57:11.685Z,430.00
2018-05-03T12:59:16.621Z,371.87
2018-05-03T13:01:22.463Z,312.00
2018-05-03T13:03:26.365Z,282.47
2018-05-03T13:05:30.498Z,267.27
2018-05-03T13:07:34.530Z,284.73
2018-05-03T13:09:38.495Z,239.43
2018-05-03T13:11:44.387Z,189.70
2018-05-03T13:13:48.608Z,200.30
2018-05-03T13:15:52.495Z,239.23
2018-05-03T13:17:56.836Z,191.73
2018-05-03T13:20:00.680Z,162.10
2018-05-03T13:22:04.953Z,176.87
2018-05-03T13:24:09.795Z,124.43
2018-05-03T13:26:14.435Z,166.87
2018-05-03T13:28:20.283Z,146.07
2018-05-03T13:30:24.836Z,160.43
2018-05-03T13:32:28.691Z,124.20
2018-05-03T13:34:33.209Z,113.77
2018-05-03T13:36:37.393Z,101.20
2018-05-03T13:38:42.901Z,112.90
2018-05-03T13:40:46.884Z,94.07
2018-05-03T13:42:51.272Z,105.27
2018-05-03T13:44:55.537Z,85.70
2018-05-03T13:47:00.161Z,81.23
2018-05-03T13:49:04.670Z,64.63
2018-05-03T13:51:09.311Z,76.70
2018-05-03T13:53:15.545Z,69.43
2018-05-03T13:55:22.626Z,64.73
2018-05-03T13:58:50.615Z,54.20
2018-05-03T14:00:55.039Z,53.57
2018-05-03T14:02:58.931Z,51.03
2018-05-03T14:05:03.014Z,48.37
2018-05-03T14:07:08.127Z,42.10
2018-05-03T14:09:12.665Z,36.60
2018-05-03T14:11:17.994Z,36.43
2018-05-03T14:13:23.749Z,37.70
2018-05-03T14:15:27.683Z,33.17
2018-05-03T14:17:31.656Z,32.60
2018-05-03T14:19:35.930Z,34.47
2018-05-03T14:21:41.947Z,31.53
2018-05-03T14:23:45.863Z,33.27
2018-05-03T14:25:50.115Z,29.40
2018-05-03T14:27:54.016Z,30.53
2018-05-03T14:29:57.886Z,30.47
2018-05-03T14:32:02.063Z,26.20
2018-05-03T14:34:06.411Z,25.33
2018-05-03T14:36:11.082Z,24.30
2018-05-03T14:38:16.077Z,23.53
2018-05-03T14:40:24.228Z,21.97
2018-05-03T14:42:28.229Z,19.00
2018-05-03T14:44:32.375Z,23.10
2018-05-03T14:46:36.331Z,21.37
2018-05-03T14:48:42.347Z,17.93
2018-05-03T14:50:46.539Z,17.37
2018-05-03T14:52:51.805Z,20.33
2018-05-03T14:54:55.882Z,19.37
2018-05-03T14:57:00.380Z,16.90
2018-05-03T14:59:08.272Z,17.87
2018-05-03T15:01:16.474Z,17.13
2018-05-03T15:03:22.788Z,16.80
2018-05-03T15:05:26.916Z,15.77
2018-05-03T15:07:32.088Z,15.00
2018-05-03T15:09:36.406Z,14.47
2018-05-03T15:11:42.884Z,14.60
2018-05-03T15:13:46.837Z,15.20
2018-05-03T15:15:51.317Z,13.23
2018-05-03T15:17:55.853Z,13.47
2018-05-03T15:20:00.645Z,11.90
2018-05-03T15:22:09.943Z,13.17
2018-05-03T15:24:15.139Z,12.50
2018-05-03T15:26:20.041Z,13.00
2018-05-03T15:28:26.396Z,12.80
2018-05-03T15:30:30.995Z,12.33
2018-05-03T15:32:45.832Z,11.60
2018-05-03T15:34:53.757Z,10.30
2018-05-03T15:37:06.019Z,10.43
2018-05-03T15:39:15.043Z,10.90
2018-05-03T15:41:25.433Z,9.90
2018-05-03T15:43:34.395Z,9.90
2018-05-03T15:45:49.088Z,10.77
2018-05-03T15:47:57.351Z,10.97
2018-05-03T15:50:20.788Z,9.50
2018-05-03T15:52:25.045Z,9.67
2018-05-03T15:54:33.139Z,9.70
2018-05-03T15:56:38.620Z,10.13
2018-05-03T15:58:48.545Z,9.47
2018-05-03T16:00:56.495Z,8.73
2018-05-03T16:03:09.089Z,8.73
2018-05-03T16:05:16.992Z,9.23
2018-05-03T16:07:22.748Z,9.00
2018-05-03T16:09:26.857Z,9.33
2018-05-03T16:11:30.822Z,8.43
2018-05-03T16:13:35.146Z,8.90
2018-05-03T16:15:39.825Z,8.37
2018-05-03T16:17:44.853Z,8.23
2018-05-03T16:19:49.409Z,8.37
2018-05-03T16:21:54.908Z,8.13
2018-05-03T16:23:58.964Z,8.80
2018-05-03T16:26:03.447Z,8.57
2018-05-03T16:28:08.993Z,8.00
2018-05-03T16:30:13.428Z,7.90
2018-05-03T16:32:20.564Z,8.00
2018-05-03T16:34:24.836Z,7.90
2018-05-03T16:36:28.723Z,8.53
2018-05-03T16:38:33.092Z,8.50
2018-05-03T16:40:37.001Z,8.40
2018-05-03T16:42:43.031Z,9.13
2018-05-03T16:44:47.379Z,8.33
2018-05-03T16:46:51.303Z,8.30
2018-05-03T16:48:55.184Z,8.80
2018-05-03T16:50:59.394Z,8.60
2018-05-03T16:53:03.242Z,8.00
2018-05-03T16:55:07.948Z,7.50
2018-05-03T16:57:13.838Z,7.83
2018-05-03T16:59:20.447Z,7.40
2018-05-03T17:01:24.800Z,7.87
2018-05-03T17:03:28.938Z,7.83
2018-05-03T17:05:32.868Z,7.30
2018-05-03T17:07:36.768Z,7.20
2018-05-03T17:09:40.980Z,7.47
2018-05-03T17:11:44.860Z,8.33
2018-05-03T17:13:48.840Z,6.97
2018-05-03T17:15:52.996Z,6.60
2018-05-03T17:17:57.045Z,7.07
2018-05-03T17:20:00.872Z,7.30
2018-05-03T17:22:05.264Z,7.20
2018-05-03T17:24:09.740Z,7.50
2018-05-03T17:26:14.395Z,6.83
2018-05-03T17:28:20.346Z,6.93
2018-05-03T17:30:26.108Z,7.23
2018-05-03T17:32:30.089Z,6.90
2018-05-03T17:34:34.982Z,6.80
